sensor_id;sensor_type;location;lat;lon;timestamp;pressure;altitude;pressure_sealevel;temperature;humidity
41703;BME280;861;48.808;9.006;2022-10-17T00:00:24;97628.94;;;16.79;80.18
41703;BME280;861;48.808;9.006;2022-10-17T00:02:53;97630.25;;;16.67;80.67
41703;BME280;861;48.808;9.006;2022-10-17T00:05:23;97634.22;;;16.63;80.72
41703;BME280;861;48.808;9.006;2022-10-17T00:07:52;97628.25;;;16.71;80.78
41703;BME280;861;48.808;9.006;2022-10-17T00:10:21;97634.19;;;16.66;80.99
41703;BME280;861;48.808;9.006;2022-10-17T00:12:47;97639.66;;;16.70;81.05
41703;BME280;861;48.808;9.006;2022-10-17T00:15:22;97635.97;;;16.80;79.92
41703;BME280;861;48.808;9.006;2022-10-17T00:17:49;97641.78;;;16.89;79.70
41703;BME280;861;48.808;9.006;2022-10-17T00:20:16;97644.06;;;16.94;79.50
41703;BME280;861;48.808;9.006;2022-10-17T00:22:43;97650.44;;;16.88;79.60
41703;BME280;861;48.808;9.006;2022-10-17T00:25:11;97649.97;;;16.93;79.07
41703;BME280;861;48.808;9.006;2022-10-17T00:27:40;97646.81;;;16.94;78.86
41703;BME280;861;48.808;9.006;2022-10-17T00:30:13;97653.97;;;16.88;79.24
41703;BME280;861;48.808;9.006;2022-10-17T00:32:41;97650.03;;;16.89;78.99
41703;BME280;861;48.808;9.006;2022-10-17T00:35:09;97649.97;;;16.93;79.33
41703;BME280;861;48.808;9.006;2022-10-17T00:37:36;97650.06;;;16.86;79.14
41703;BME280;861;48.808;9.006;2022-10-17T00:40:05;97656.03;;;16.80;78.85
41703;BME280;861;48.808;9.006;2022-10-17T00:42:32;97658.94;;;16.66;79.12
41703;BME280;861;48.808;9.006;2022-10-17T00:45:26;97661.16;;;16.41;80.56
41703;BME280;861;48.808;9.006;2022-10-17T00:48:07;97644.94;;;16.54;79.97
41703;BME280;861;48.808;9.006;2022-10-17T00:50:42;97649.47;;;16.71;80.06
41703;BME280;861;48.808;9.006;2022-10-17T00:53:12;97652.59;;;16.73;79.48
41703;BME280;861;48.808;9.006;2022-10-17T00:55:53;97650.91;;;16.45;79.88
41703;BME280;861;48.808;9.006;2022-10-17T00:58:21;97654.38;;;16.53;79.67
41703;BME280;861;48.808;9.006;2022-10-17T01:00:47;97654.72;;;16.58;79.15
41703;BME280;861;48.808;9.006;2022-10-17T01:03:15;97657.50;;;16.51;79.82
41703;BME280;861;48.808;9.006;2022-10-17T01:05:42;97653.19;;;16.54;79.17
41703;BME280;861;48.808;9.006;2022-10-17T01:08:11;97664.66;;;16.45;79.54
41703;BME280;861;48.808;9.006;2022-10-17T01:14:18;97664.84;;;16.24;81.57
41703;BME280;861;48.808;9.006;2022-10-17T01:32:25;97663.75;;;16.15;81.04
41703;BME280;861;48.808;9.006;2022-10-17T01:35:47;97657.22;;;15.98;81.37
41703;BME280;861;48.808;9.006;2022-10-17T01:41:23;97661.19;;;15.94;81.54
41703;BME280;861;48.808;9.006;2022-10-17T01:44:39;97660.19;;;15.70;81.15
41703;BME280;861;48.808;9.006;2022-10-17T01:47:25;97661.03;;;15.60;81.90
41703;BME280;861;48.808;9.006;2022-10-17T01:50:15;97664.09;;;15.73;81.37
41703;BME280;861;48.808;9.006;2022-10-17T01:52:54;97656.94;;;15.82;81.54
41703;BME280;861;48.808;9.006;2022-10-17T01:55:39;97656.09;;;15.92;80.21
41703;BME280;861;48.808;9.006;2022-10-17T01:58:27;97654.31;;;15.68;81.89
41703;BME280;861;48.808;9.006;2022-10-17T02:01:05;97647.28;;;15.67;81.33
41703;BME280;861;48.808;9.006;2022-10-17T02:03:41;97647.34;;;15.57;82.51
41703;BME280;861;48.808;9.006;2022-10-17T02:06:10;97648.50;;;15.59;82.34
41703;BME280;861;48.808;9.006;2022-10-17T02:08:50;97646.66;;;15.42;82.81
41703;BME280;861;48.808;9.006;2022-10-17T02:11:26;97647.78;;;15.48;83.18
41703;BME280;861;48.808;9.006;2022-10-17T02:17:47;97651.38;;;15.38;82.85
41703;BME280;861;48.808;9.006;2022-10-17T02:20:34;97656.00;;;15.55;81.89
41703;BME280;861;48.808;9.006;2022-10-17T02:23:41;97653.56;;;15.68;81.67
41703;BME280;861;48.808;9.006;2022-10-17T02:26:44;97655.19;;;15.58;82.63
41703;BME280;861;48.808;9.006;2022-10-17T02:29:45;97661.41;;;15.62;82.01
41703;BME280;861;48.808;9.006;2022-10-17T02:35:52;97664.09;;;15.73;80.81
41703;BME280;861;48.808;9.006;2022-10-17T02:38:28;97662.56;;;15.68;81.23
41703;BME280;861;48.808;9.006;2022-10-17T02:40:57;97658.66;;;15.66;80.60
41703;BME280;861;48.808;9.006;2022-10-17T02:43:25;97659.44;;;15.66;80.71
41703;BME280;861;48.808;9.006;2022-10-17T02:45:53;97663.75;;;15.64;80.64
41703;BME280;861;48.808;9.006;2022-10-17T02:48:40;97663.03;;;15.56;81.71
41703;BME280;861;48.808;9.006;2022-10-17T02:51:41;97661.19;;;15.43;82.00
41703;BME280;861;48.808;9.006;2022-10-17T02:54:36;97658.38;;;15.46;81.51
41703;BME280;861;48.808;9.006;2022-10-17T02:57:28;97658.66;;;15.66;80.49
41703;BME280;861;48.808;9.006;2022-10-17T03:00:05;97659.09;;;15.57;81.23
41703;BME280;861;48.808;9.006;2022-10-17T03:02:49;97660.28;;;15.56;81.28
41703;BME280;861;48.808;9.006;2022-10-17T03:05:26;97663.44;;;15.58;81.25
41703;BME280;861;48.808;9.006;2022-10-17T03:07:55;97669.44;;;15.28;82.00
41703;BME280;861;48.808;9.006;2022-10-17T03:10:23;97662.44;;;15.20;82.42
41703;BME280;861;48.808;9.006;2022-10-17T03:12:50;97662.13;;;15.08;83.11
41703;BME280;861;48.808;9.006;2022-10-17T03:15:17;97667.63;;;14.97;83.54
41703;BME280;861;48.808;9.006;2022-10-17T03:17:43;97658.66;;;14.90;83.83
41703;BME280;861;48.808;9.006;2022-10-17T03:20:10;97666.53;;;14.81;84.72
41703;BME280;861;48.808;9.006;2022-10-17T03:22:36;97668.81;;;15.00;84.01
41703;BME280;861;48.808;9.006;2022-10-17T03:25:03;97675.06;;;15.04;83.26
41703;BME280;861;48.808;9.006;2022-10-17T03:27:30;97669.56;;;15.00;82.96
41703;BME280;861;48.808;9.006;2022-10-17T03:29:56;97669.63;;;14.86;84.43
41703;BME280;861;48.808;9.006;2022-10-17T03:32:23;97667.63;;;15.08;83.70
41703;BME280;861;48.808;9.006;2022-10-17T03:34:49;97670.72;;;15.10;82.92
41703;BME280;861;48.808;9.006;2022-10-17T03:37:16;97669.19;;;15.02;83.27
41703;BME280;861;48.808;9.006;2022-10-17T03:39:43;97667.69;;;14.90;84.34
41703;BME280;861;48.808;9.006;2022-10-17T03:42:09;97665.28;;;14.99;84.00
41703;BME280;861;48.808;9.006;2022-10-17T03:44:35;97671.50;;;15.14;83.12
41703;BME280;861;48.808;9.006;2022-10-17T03:47:04;97675.06;;;15.07;83.12
41703;BME280;861;48.808;9.006;2022-10-17T03:49:32;97671.91;;;15.12;82.27
41703;BME280;861;48.808;9.006;2022-10-17T03:51:58;97669.88;;;15.23;81.35
41703;BME280;861;48.808;9.006;2022-10-17T03:54:25;97668.28;;;15.22;82.25
41703;BME280;861;48.808;9.006;2022-10-17T03:56:51;97673.78;;;15.22;82.26
41703;BME280;861;48.808;9.006;2022-10-17T03:59:18;97687.16;;;15.20;82.03
41703;BME280;861;48.808;9.006;2022-10-17T04:01:45;97683.59;;;15.20;81.97
41703;BME280;861;48.808;9.006;2022-10-17T04:04:12;97693.41;;;15.21;81.98
41703;BME280;861;48.808;9.006;2022-10-17T04:06:38;97686.03;;;15.00;82.87
41703;BME280;861;48.808;9.006;2022-10-17T04:09:07;97702.53;;;14.90;83.60
41703;BME280;861;48.808;9.006;2022-10-17T04:11:35;97695.91;;;14.77;83.24
41703;BME280;861;48.808;9.006;2022-10-17T04:14:02;97703.03;;;14.64;84.45
41703;BME280;861;48.808;9.006;2022-10-17T04:16:29;97701.78;;;14.79;83.93
41703;BME280;861;48.808;9.006;2022-10-17T04:18:59;97706.09;;;14.83;83.48
41703;BME280;861;48.808;9.006;2022-10-17T04:21:28;97708.06;;;14.69;83.66
41703;BME280;861;48.808;9.006;2022-10-17T04:23:59;97712.81;;;14.47;84.12
41703;BME280;861;48.808;9.006;2022-10-17T04:26:27;97710.88;;;14.37;84.65
41703;BME280;861;48.808;9.006;2022-10-17T04:28:54;97717.16;;;14.38;85.04
41703;BME280;861;48.808;9.006;2022-10-17T04:31:20;97721.06;;;14.44;83.82
41703;BME280;861;48.808;9.006;2022-10-17T04:33:49;97721.84;;;14.48;83.36
41703;BME280;861;48.808;9.006;2022-10-17T04:36:19;97715.19;;;14.56;83.43
41703;BME280;861;48.808;9.006;2022-10-17T04:38:46;97712.84;;;14.54;83.13
41703;BME280;861;48.808;9.006;2022-10-17T04:41:17;97711.22;;;14.67;82.46
41703;BME280;861;48.808;9.006;2022-10-17T04:43:44;97708.88;;;14.73;82.59
41703;BME280;861;48.808;9.006;2022-10-17T04:46:14;97717.09;;;14.73;83.02
41703;BME280;861;48.808;9.006;2022-10-17T04:48:42;97714.31;;;14.80;83.05
41703;BME280;861;48.808;9.006;2022-10-17T04:51:14;97713.19;;;14.67;83.57
41703;BME280;861;48.808;9.006;2022-10-17T04:53:44;97711.63;;;14.62;83.87
41703;BME280;861;48.808;9.006;2022-10-17T04:56:20;97717.53;;;14.57;84.56
41703;BME280;861;48.808;9.006;2022-10-17T04:58:49;97711.66;;;14.55;85.33
41703;BME280;861;48.808;9.006;2022-10-17T05:01:22;97715.97;;;14.39;86.16
41703;BME280;861;48.808;9.006;2022-10-17T05:03:50;97723.03;;;14.40;86.12
41703;BME280;861;48.808;9.006;2022-10-17T05:06:23;97715.19;;;14.42;86.13
41703;BME280;861;48.808;9.006;2022-10-17T05:08:54;97714.78;;;14.57;85.33
41703;BME280;861;48.808;9.006;2022-10-17T05:11:25;97710.84;;;14.62;85.55
41703;BME280;861;48.808;9.006;2022-10-17T05:13:56;97710.84;;;14.58;85.43
41703;BME280;861;48.808;9.006;2022-10-17T05:16:27;97700.69;;;14.59;85.11
41703;BME280;861;48.808;9.006;2022-10-17T05:18:57;97709.22;;;14.82;85.01
41703;BME280;861;48.808;9.006;2022-10-17T05:21:27;97717.44;;;14.85;84.55
41703;BME280;861;48.808;9.006;2022-10-17T05:23:55;97706.56;;;14.57;85.54
41703;BME280;861;48.808;9.006;2022-10-17T05:26:23;97706.91;;;14.66;84.67
41703;BME280;861;48.808;9.006;2022-10-17T05:28:51;97698.34;;;14.57;85.10
41703;BME280;861;48.808;9.006;2022-10-17T05:31:18;97697.94;;;14.52;85.44
41703;BME280;861;48.808;9.006;2022-10-17T05:33:44;97704.22;;;14.56;85.41
41703;BME280;861;48.808;9.006;2022-10-17T05:36:12;97706.56;;;14.54;85.13
41703;BME280;861;48.808;9.006;2022-10-17T05:38:39;97711.66;;;14.59;84.72
41703;BME280;861;48.808;9.006;2022-10-17T05:41:08;97703.81;;;14.57;85.18
41703;BME280;861;48.808;9.006;2022-10-17T05:43:35;97713.63;;;14.48;85.46
41703;BME280;861;48.808;9.006;2022-10-17T05:46:05;97714.00;;;14.50;86.04
41703;BME280;861;48.808;9.006;2022-10-17T05:48:33;97718.72;;;14.49;85.89
41703;BME280;861;48.808;9.006;2022-10-17T05:51:07;97714.38;;;14.48;85.20
41703;BME280;861;48.808;9.006;2022-10-17T05:53:38;97709.28;;;14.54;85.00
41703;BME280;861;48.808;9.006;2022-10-17T05:56:11;97726.91;;;14.60;85.35
41703;BME280;861;48.808;9.006;2022-10-17T05:58:42;97721.81;;;14.51;85.36
41703;BME280;861;48.808;9.006;2022-10-17T06:01:12;97723.41;;;14.56;85.28
41703;BME280;861;48.808;9.006;2022-10-17T06:03:39;97721.81;;;14.62;85.27
41703;BME280;861;48.808;9.006;2022-10-17T06:06:13;97723.38;;;14.63;84.67
41703;BME280;861;48.808;9.006;2022-10-17T06:08:41;97730.44;;;14.57;85.28
41703;BME280;861;48.808;9.006;2022-10-17T06:11:10;97730.44;;;14.57;85.09
41703;BME280;861;48.808;9.006;2022-10-17T06:13:39;97724.19;;;14.53;85.66
41703;BME280;861;48.808;9.006;2022-10-17T06:16:06;97724.91;;;14.67;84.90
41703;BME280;861;48.808;9.006;2022-10-17T06:18:33;97726.09;;;14.66;84.76
41703;BME280;861;48.808;9.006;2022-10-17T06:21:11;97719.47;;;14.64;84.62
41703;BME280;861;48.808;9.006;2022-10-17T06:23:42;97737.91;;;14.53;85.40
41703;BME280;861;48.808;9.006;2022-10-17T06:26:11;97733.56;;;14.55;85.52
41703;BME280;861;48.808;9.006;2022-10-17T06:28:39;97739.47;;;14.40;86.21
41703;BME280;861;48.808;9.006;2022-10-17T06:31:10;97748.03;;;14.59;85.59
41703;BME280;861;48.808;9.006;2022-10-17T06:33:39;97749.19;;;14.69;85.38
41703;BME280;861;48.808;9.006;2022-10-17T06:36:09;97752.34;;;14.71;85.06
41703;BME280;861;48.808;9.006;2022-10-17T06:38:38;97758.97;;;14.87;84.70
41703;BME280;861;48.808;9.006;2022-10-17T06:41:09;97772.69;;;14.80;85.04
41703;BME280;861;48.808;9.006;2022-10-17T06:43:43;97777.00;;;14.67;85.05
41703;BME280;861;48.808;9.006;2022-10-17T06:46:15;97780.53;;;14.68;85.28
41703;BME280;861;48.808;9.006;2022-10-17T06:48:43;97776.97;;;14.88;85.38
41703;BME280;861;48.808;9.006;2022-10-17T06:51:12;97778.94;;;14.88;84.80
41703;BME280;861;48.808;9.006;2022-10-17T06:53:40;97793.44;;;14.92;85.35
41703;BME280;861;48.808;9.006;2022-10-17T06:56:09;97794.22;;;14.89;85.25
41703;BME280;861;48.808;9.006;2022-10-17T06:58:39;97793.41;;;14.95;86.01
41703;BME280;861;48.808;9.006;2022-10-17T07:01:10;97796.50;;;15.11;85.26
41703;BME280;861;48.808;9.006;2022-10-17T07:03:39;97796.91;;;15.17;85.35
41703;BME280;861;48.808;9.006;2022-10-17T07:06:10;97805.47;;;15.26;84.56
41703;BME280;861;48.808;9.006;2022-10-17T07:08:41;97806.28;;;15.30;84.57
41703;BME280;861;48.808;9.006;2022-10-17T07:11:16;97805.06;;;15.45;83.47
41703;BME280;861;48.808;9.006;2022-10-17T07:13:46;97808.50;;;15.63;83.98
41703;BME280;861;48.808;9.006;2022-10-17T07:16:15;97808.81;;;15.79;82.98
41703;BME280;861;48.808;9.006;2022-10-17T07:18:42;97806.44;;;15.85;83.92
41703;BME280;861;48.808;9.006;2022-10-17T07:21:10;97805.72;;;15.74;85.04
41703;BME280;861;48.808;9.006;2022-10-17T07:23:36;97808.06;;;15.72;84.82
41703;BME280;861;48.808;9.006;2022-10-17T07:26:12;97819.38;;;15.84;84.84
41703;BME280;861;48.808;9.006;2022-10-17T07:28:46;97814.69;;;15.85;84.28
41703;BME280;861;48.808;9.006;2022-10-17T07:31:21;97817.75;;;15.94;84.09
41703;BME280;861;48.808;9.006;2022-10-17T07:33:49;97819.56;;;16.21;82.15
41703;BME280;861;48.808;9.006;2022-10-17T07:36:18;97817.97;;;16.20;82.87
41703;BME280;861;48.808;9.006;2022-10-17T07:38:45;97822.16;;;16.39;83.52
41703;BME280;861;48.808;9.006;2022-10-17T07:41:14;97829.19;;;16.50;81.66
41703;BME280;861;48.808;9.006;2022-10-17T07:43:40;97817.31;;;16.64;81.75
41703;BME280;861;48.808;9.006;2022-10-17T07:46:09;97828.38;;;16.98;80.89
41703;BME280;861;48.808;9.006;2022-10-17T07:48:38;97828.31;;;17.05;80.50
41703;BME280;861;48.808;9.006;2022-10-17T07:51:33;97825.41;;;17.19;80.24
41703;BME280;861;48.808;9.006;2022-10-17T07:53:59;97825.38;;;17.22;80.25
41703;BME280;861;48.808;9.006;2022-10-17T07:56:25;97829.94;;;17.36;79.86
41703;BME280;861;48.808;9.006;2022-10-17T07:58:52;97823.06;;;17.54;80.09
41703;BME280;861;48.808;9.006;2022-10-17T08:01:18;97822.13;;;17.68;79.98
41703;BME280;861;48.808;9.006;2022-10-17T08:03:46;97820.03;;;17.79;78.52
41703;BME280;861;48.808;9.006;2022-10-17T08:06:16;97829.97;;;17.99;78.53
41703;BME280;861;48.808;9.006;2022-10-17T08:08:44;97832.06;;;18.18;78.10
41703;BME280;861;48.808;9.006;2022-10-17T08:11:13;97824.28;;;18.40;76.11
41703;BME280;861;48.808;9.006;2022-10-17T08:13:42;97825.25;;;18.53;75.73
41703;BME280;861;48.808;9.006;2022-10-17T08:16:11;97827.44;;;18.65;75.01
41703;BME280;861;48.808;9.006;2022-10-17T08:18:41;97829.22;;;18.75;74.82
41703;BME280;861;48.808;9.006;2022-10-17T08:21:08;97820.47;;;18.80;75.49
41703;BME280;861;48.808;9.006;2022-10-17T08:23:36;97821.06;;;18.91;74.69
41703;BME280;861;48.808;9.006;2022-10-17T08:26:06;97823.53;;;19.09;72.99
41703;BME280;861;48.808;9.006;2022-10-17T08:28:38;97827.97;;;19.03;73.95
41703;BME280;861;48.808;9.006;2022-10-17T08:31:14;97832.16;;;19.11;74.83
41703;BME280;861;48.808;9.006;2022-10-17T08:33:48;97836.47;;;19.12;74.03
41703;BME280;861;48.808;9.006;2022-10-17T08:36:18;97835.47;;;19.25;73.44
41703;BME280;861;48.808;9.006;2022-10-17T08:38:46;97836.34;;;19.42;71.86
41703;BME280;861;48.808;9.006;2022-10-17T08:41:36;97838.56;;;19.50;71.58
41703;BME280;861;48.808;9.006;2022-10-17T08:47:43;97834.50;;;19.74;69.66
41703;BME280;861;48.808;9.006;2022-10-17T08:50:39;97839.75;;;19.89;70.71
41703;BME280;861;48.808;9.006;2022-10-17T08:53:50;97837.53;;;20.00;70.34
41703;BME280;861;48.808;9.006;2022-10-17T08:56:41;97838.31;;;20.20;69.56
41703;BME280;861;48.808;9.006;2022-10-17T08:59:20;97841.78;;;20.40;67.72
41703;BME280;861;48.808;9.006;2022-10-17T09:08:23;97849.59;;;20.45;69.34
41703;BME280;861;48.808;9.006;2022-10-17T09:11:38;97836.09;;;20.47;70.19
41703;BME280;861;48.808;9.006;2022-10-17T09:20:27;97844.75;;;20.65;69.31
41703;BME280;861;48.808;9.006;2022-10-17T09:23:25;97850.38;;;20.77;67.68
41703;BME280;861;48.808;9.006;2022-10-17T09:26:00;97853.56;;;20.76;68.49
41703;BME280;861;48.808;9.006;2022-10-17T09:28:36;97849.16;;;20.94;67.50
41703;BME280;861;48.808;9.006;2022-10-17T09:31:18;97842.16;;;20.90;68.86
41703;BME280;861;48.808;9.006;2022-10-17T09:33:51;97846.59;;;21.03;67.93
41703;BME280;861;48.808;9.006;2022-10-17T09:36:37;97848.38;;;21.26;65.84
41703;BME280;861;48.808;9.006;2022-10-17T09:39:16;97845.47;;;21.46;64.48
41703;BME280;861;48.808;9.006;2022-10-17T09:41:54;97844.72;;;21.58;63.51
41703;BME280;861;48.808;9.006;2022-10-17T09:44:33;97843.56;;;21.71;64.51
41703;BME280;861;48.808;9.006;2022-10-17T09:49:51;97846.38;;;22.12;60.84
41703;BME280;861;48.808;9.006;2022-10-17T09:52:41;97839.47;;;22.04;61.33
41703;BME280;861;48.808;9.006;2022-10-17T09:55:36;97836.25;;;22.18;60.38
41703;BME280;861;48.808;9.006;2022-10-17T09:58:09;97835.47;;;22.18;61.79
41703;BME280;861;48.808;9.006;2022-10-17T10:00:43;97840.13;;;22.08;60.80
41703;BME280;861;48.808;9.006;2022-10-17T10:03:25;97832.03;;;22.14;59.51
41703;BME280;861;48.808;9.006;2022-10-17T10:06:05;97834.38;;;22.15;60.82
41703;BME280;861;48.808;9.006;2022-10-17T10:11:51;97838.50;;;22.23;60.76
41703;BME280;861;48.808;9.006;2022-10-17T10:14:31;97846.94;;;22.32;58.33
41703;BME280;861;48.808;9.006;2022-10-17T10:17:03;97845.38;;;22.44;58.63
41703;BME280;861;48.808;9.006;2022-10-17T10:19:52;97854.38;;;22.48;59.33
41703;BME280;861;48.808;9.006;2022-10-17T10:22:21;97848.28;;;22.65;59.11
41703;BME280;861;48.808;9.006;2022-10-17T10:25:14;97855.81;;;22.90;59.67
41703;BME280;861;48.808;9.006;2022-10-17T10:27:47;97858.53;;;23.15;59.84
41703;BME280;861;48.808;9.006;2022-10-17T10:30:21;97856.97;;;23.27;59.90
41703;BME280;861;48.808;9.006;2022-10-17T10:32:57;97861.44;;;23.58;59.91
41703;BME280;861;48.808;9.006;2022-10-17T10:35:34;97854.34;;;23.79;58.14
41703;BME280;861;48.808;9.006;2022-10-17T10:38:10;97857.69;;;23.95;55.98
41703;BME280;861;48.808;9.006;2022-10-17T10:40:55;97859.91;;;24.00;55.13
41703;BME280;861;48.808;9.006;2022-10-17T10:46:17;97864.84;;;24.27;55.81
41703;BME280;861;48.808;9.006;2022-10-17T10:48:59;97863.09;;;24.42;55.59
41703;BME280;861;48.808;9.006;2022-10-17T10:51:43;97859.44;;;24.24;55.42
41703;BME280;861;48.808;9.006;2022-10-17T10:54:24;97854.63;;;24.24;57.23
41703;BME280;861;48.808;9.006;2022-10-17T10:57:05;97862.28;;;24.33;55.34
41703;BME280;861;48.808;9.006;2022-10-17T11:06:34;97860.47;;;24.78;54.03
41703;BME280;861;48.808;9.006;2022-10-17T11:09:52;97849.69;;;24.98;53.75
41703;BME280;861;48.808;9.006;2022-10-17T11:12:49;97848.34;;;25.21;55.74
41703;BME280;861;48.808;9.006;2022-10-17T11:15:45;97847.88;;;25.31;53.62
41703;BME280;861;48.808;9.006;2022-10-17T11:18:38;97847.31;;;25.45;57.23
41703;BME280;861;48.808;9.006;2022-10-17T11:24:29;97844.03;;;25.83;53.71
41703;BME280;861;48.808;9.006;2022-10-17T11:27:06;97844.94;;;25.89;56.25
41703;BME280;861;48.808;9.006;2022-10-17T11:29:38;97839.63;;;26.27;56.83
41703;BME280;861;48.808;9.006;2022-10-17T11:32:35;97846.38;;;26.53;54.95
41703;BME280;861;48.808;9.006;2022-10-17T11:35:27;97838.34;;;26.79;53.48
41703;BME280;861;48.808;9.006;2022-10-17T11:41:25;97837.16;;;26.71;50.49
41703;BME280;861;48.808;9.006;2022-10-17T11:53:18;97836.41;;;26.94;50.55
41703;BME280;861;48.808;9.006;2022-10-17T11:55:51;97834.50;;;27.00;51.63
41703;BME280;861;48.808;9.006;2022-10-17T11:58:55;97836.69;;;27.29;48.63
41703;BME280;861;48.808;9.006;2022-10-17T12:01:47;97837.16;;;27.27;48.49
41703;BME280;861;48.808;9.006;2022-10-17T12:10:54;97842.13;;;27.85;47.75
41703;BME280;861;48.808;9.006;2022-10-17T12:19:12;97824.16;;;27.77;47.86
41703;BME280;861;48.808;9.006;2022-10-17T12:22:20;97823.16;;;28.03;47.41
41703;BME280;861;48.808;9.006;2022-10-17T12:24:59;97821.72;;;28.08;47.59
41703;BME280;861;48.808;9.006;2022-10-17T12:27:41;97829.44;;;27.98;45.68
41703;BME280;861;48.808;9.006;2022-10-17T12:30:27;97827.03;;;27.68;47.83
41703;BME280;861;48.808;9.006;2022-10-17T12:33:04;97838.38;;;27.88;46.79
41703;BME280;861;48.808;9.006;2022-10-17T12:35:49;97848.06;;;28.01;52.28
41703;BME280;861;48.808;9.006;2022-10-17T12:45:53;97836.66;;;28.34;53.22
41703;BME280;861;48.808;9.006;2022-10-17T12:51:17;97837.13;;;28.18;53.95
41703;BME280;861;48.808;9.006;2022-10-17T12:54:11;97844.78;;;28.17;54.29
41703;BME280;861;48.808;9.006;2022-10-17T12:56:46;97849.91;;;28.04;53.93
41703;BME280;861;48.808;9.006;2022-10-17T12:59:25;97849.81;;;27.61;54.89
41703;BME280;861;48.808;9.006;2022-10-17T13:02:00;97851.31;;;27.47;55.42
41703;BME280;861;48.808;9.006;2022-10-17T13:04:31;97850.59;;;27.38;54.69
41703;BME280;861;48.808;9.006;2022-10-17T13:07:02;97850.38;;;27.27;56.09
41703;BME280;861;48.808;9.006;2022-10-17T13:09:40;97848.66;;;27.20;55.45
41703;BME280;861;48.808;9.006;2022-10-17T13:12:20;97856.97;;;27.38;53.71
41703;BME280;861;48.808;9.006;2022-10-17T13:14:53;97867.16;;;27.27;53.32
41703;BME280;861;48.808;9.006;2022-10-17T13:17:30;97859.19;;;27.01;51.66
41703;BME280;861;48.808;9.006;2022-10-17T13:19:57;97864.91;;;26.83;50.42
41703;BME280;861;48.808;9.006;2022-10-17T13:22:30;97872.38;;;26.77;51.13
41703;BME280;861;48.808;9.006;2022-10-17T13:25:15;97867.22;;;26.85;50.79
41703;BME280;861;48.808;9.006;2022-10-17T13:27:45;97869.78;;;26.65;51.12
41703;BME280;861;48.808;9.006;2022-10-17T13:30:26;97872.88;;;26.67;50.03
41703;BME280;861;48.808;9.006;2022-10-17T13:32:55;97873.53;;;26.53;52.13
41703;BME280;861;48.808;9.006;2022-10-17T13:35:31;97873.41;;;26.47;53.51
41703;BME280;861;48.808;9.006;2022-10-17T13:38:04;97876.00;;;26.51;53.69
41703;BME280;861;48.808;9.006;2022-10-17T13:40:44;97877.69;;;26.66;50.56
41703;BME280;861;48.808;9.006;2022-10-17T13:43:19;97880.47;;;26.75;51.21
41703;BME280;861;48.808;9.006;2022-10-17T13:45:54;97890.28;;;26.53;51.12
41703;BME280;861;48.808;9.006;2022-10-17T13:48:32;97886.41;;;26.59;51.76
41703;BME280;861;48.808;9.006;2022-10-17T13:51:04;97889.03;;;26.63;51.05
41703;BME280;861;48.808;9.006;2022-10-17T13:53:35;97890.66;;;26.37;52.05
41703;BME280;861;48.808;9.006;2022-10-17T13:56:26;97882.31;;;26.28;52.04
41703;BME280;861;48.808;9.006;2022-10-17T13:59:12;97889.75;;;26.31;52.37
41703;BME280;861;48.808;9.006;2022-10-17T14:01:49;97880.56;;;26.39;50.60
41703;BME280;861;48.808;9.006;2022-10-17T14:04:17;97880.13;;;26.23;51.46
41703;BME280;861;48.808;9.006;2022-10-17T14:06:45;97894.56;;;26.21;50.72
41703;BME280;861;48.808;9.006;2022-10-17T14:09:32;97889.72;;;26.40;50.42
41703;BME280;861;48.808;9.006;2022-10-17T14:12:11;97890.19;;;26.38;48.92
41703;BME280;861;48.808;9.006;2022-10-17T14:14:45;97885.34;;;26.48;49.64
41703;BME280;861;48.808;9.006;2022-10-17T14:17:23;97888.09;;;26.06;51.37
41703;BME280;861;48.808;9.006;2022-10-17T14:19:58;97893.03;;;26.20;50.46
41703;BME280;861;48.808;9.006;2022-10-17T14:22:35;97888.81;;;26.25;49.51
41703;BME280;861;48.808;9.006;2022-10-17T14:25:03;97883.25;;;26.07;50.47
41703;BME280;861;48.808;9.006;2022-10-17T14:27:54;97884.03;;;25.80;52.78
41703;BME280;861;48.808;9.006;2022-10-17T14:33:16;97888.06;;;25.97;53.60
41703;BME280;861;48.808;9.006;2022-10-17T14:35:55;97889.91;;;26.18;53.43
41703;BME280;861;48.808;9.006;2022-10-17T14:38:25;97891.00;;;26.12;51.98
41703;BME280;861;48.808;9.006;2022-10-17T14:41:23;97888.38;;;26.17;52.21
41703;BME280;861;48.808;9.006;2022-10-17T14:43:57;97890.53;;;26.22;52.26
41703;BME280;861;48.808;9.006;2022-10-17T14:46:27;97892.41;;;26.25;52.11
41703;BME280;861;48.808;9.006;2022-10-17T14:49:06;97891.47;;;26.19;51.30
41703;BME280;861;48.808;9.006;2022-10-17T14:54:49;97894.16;;;26.05;52.38
41703;BME280;861;48.808;9.006;2022-10-17T14:57:26;97898.94;;;26.04;54.03
41703;BME280;861;48.808;9.006;2022-10-17T14:59:59;97901.13;;;26.09;52.45
41703;BME280;861;48.808;9.006;2022-10-17T15:02:29;97897.56;;;26.00;53.23
41703;BME280;861;48.808;9.006;2022-10-17T15:04:55;97896.13;;;25.95;52.70
41703;BME280;861;48.808;9.006;2022-10-17T15:07:22;97893.66;;;25.88;53.26
41703;BME280;861;48.808;9.006;2022-10-17T15:09:51;97893.34;;;25.68;52.55
41703;BME280;861;48.808;9.006;2022-10-17T15:12:23;97897.38;;;25.76;54.40
41703;BME280;861;48.808;9.006;2022-10-17T15:14:50;97896.59;;;25.85;52.26
41703;BME280;861;48.808;9.006;2022-10-17T15:17:20;97897.84;;;25.56;52.28
41703;BME280;861;48.808;9.006;2022-10-17T15:19:50;97902.63;;;25.47;53.41
41703;BME280;861;48.808;9.006;2022-10-17T15:22:17;97895.66;;;25.51;52.93
41703;BME280;861;48.808;9.006;2022-10-17T15:24:45;97901.22;;;25.42;53.71
41703;BME280;861;48.808;9.006;2022-10-17T15:27:24;97899.00;;;25.28;52.85
41703;BME280;861;48.808;9.006;2022-10-17T15:29:51;97907.06;;;25.26;53.25
41703;BME280;861;48.808;9.006;2022-10-17T15:32:19;97902.41;;;25.23;53.33
41703;BME280;861;48.808;9.006;2022-10-17T15:34:45;97896.81;;;25.23;54.70
41703;BME280;861;48.808;9.006;2022-10-17T15:37:24;97895.44;;;25.19;54.68
41703;BME280;861;48.808;9.006;2022-10-17T15:39:53;97894.81;;;25.15;54.04
41703;BME280;861;48.808;9.006;2022-10-17T15:42:29;97900.53;;;25.11;55.12
41703;BME280;861;48.808;9.006;2022-10-17T15:44:57;97902.84;;;25.04;55.90
41703;BME280;861;48.808;9.006;2022-10-17T15:47:30;97911.19;;;25.04;57.96